Time,TemperatureF,DewpointF,PressureIn,WindDirection,WindDirectionDegrees,WindSpeedMPH,WindSpeedGustMPH,Humidity,HourlyPrecipIn,Conditions,Clouds,dailyrainin,SoftwareType,DateUTC
2013-02-15 00:01:00,14.0,10.0,-100.00,SSW,204,0.0,1.0,83,-99.99,,,-99.99,,2013-02-15 07:01:00,
2013-02-15 00:11:00,14.0,10.0,-100.00,SSW,204,0.0,1.0,83,-99.99,,,-99.99,,2013-02-15 07:11:00,
2013-02-15 00:21:00,14.0,10.0,-100.00,South,181,1.0,3.0,84,-99.99,,,-99.99,,2013-02-15 07:21:00,
2013-02-15 00:31:00,14.0,10.0,-100.00,South,181,1.0,3.0,84,-99.99,,,-99.99,,2013-02-15 07:31:00,
2013-02-15 00:41:00,14.0,10.0,-100.00,South,181,1.0,3.0,84,-99.99,,,-99.99,,2013-02-15 07:41:00,
2013-02-15 01:31:00,12.0,10.0,-100.00,ESE,111,1.0,3.0,93,-99.99,,,-99.99,,2013-02-15 08:31:00,
2013-02-15 01:41:00,12.0,10.0,-100.00,ESE,111,1.0,3.0,93,-99.99,,,-99.99,,2013-02-15 08:41:00,
2013-02-15 01:52:00,13.0,12.0,-100.00,ESE,119,1.0,3.0,95,-99.99,,,-99.99,,2013-02-15 08:52:00,
2013-02-15 02:01:00,14.0,12.0,-100.00,SE,144,0.0,2.0,93,-99.99,,,-99.99,,2013-02-15 09:01:00,
2013-02-15 02:12:00,14.0,12.0,-100.00,SE,144,0.0,2.0,93,-99.99,,,-99.99,,2013-02-15 09:12:00,
2013-02-15 02:21:00,18.0,15.0,-100.00,ESE,103,1.0,5.0,88,-99.99,,,-99.99,,2013-02-15 09:21:00,
2013-02-15 02:31:00,17.0,14.0,-100.00,South,169,0.0,1.0,86,-99.99,,,-99.99,,2013-02-15 09:31:00,
2013-02-15 02:41:00,17.0,14.0,-100.00,South,169,0.0,1.0,86,-99.99,,,-99.99,,2013-02-15 09:41:00,
2013-02-15 02:51:00,17.0,15.0,-100.00,East,94,2.0,5.0,91,-99.99,,,-99.99,,2013-02-15 09:51:00,
2013-02-15 03:01:00,18.0,15.0,-100.00,SE,129,0.0,1.0,87,-99.99,,,-99.99,,2013-02-15 10:01:00,
2013-02-15 03:11:00,18.0,15.0,-100.00,SE,129,0.0,1.0,87,-99.99,,,-99.99,,2013-02-15 10:11:00,
2013-02-15 03:21:00,17.0,15.0,-100.00,WSW,251,1.0,2.0,90,-99.99,,,-99.99,,2013-02-15 10:21:00,
2013-02-15 03:31:00,16.0,14.0,-100.00,ESE,115,1.0,4.0,90,-99.99,,,-99.99,,2013-02-15 10:31:00,
2013-02-15 03:41:00,16.0,14.0,-100.00,ESE,115,1.0,4.0,90,-99.99,,,-99.99,,2013-02-15 10:41:00,
2013-02-15 03:51:00,18.0,15.0,-100.00,South,172,1.0,2.0,89,-99.99,,,-99.99,,2013-02-15 10:51:00,
2013-02-15 04:01:00,19.0,15.0,-100.00,ESE,116,1.0,4.0,85,-99.99,,,-99.99,,2013-02-15 11:01:00,
2013-02-15 04:11:00,19.0,15.0,-100.00,ESE,116,1.0,4.0,85,-99.99,,,-99.99,,2013-02-15 11:11:00,
2013-02-15 04:22:00,16.0,13.0,-100.00,SE,138,0.0,1.0,88,-99.99,,,-99.99,,2013-02-15 11:22:00,
2013-02-15 04:31:00,13.0,11.0,-100.00,SSE,155,0.0,1.0,91,-99.99,,,-99.99,,2013-02-15 11:31:00,
2013-02-15 04:42:00,13.0,11.0,-100.00,SSE,155,0.0,1.0,91,-99.99,,,-99.99,,2013-02-15 11:42:00,
2013-02-15 04:52:00,12.0,10.0,-100.00,ESE,110,0.0,1.0,93,-99.99,,,-99.99,,2013-02-15 11:52:00,
2013-02-15 05:01:00,11.0,10.0,-100.00,SE,128,0.0,1.0,96,-99.99,,,-99.99,,2013-02-15 12:01:00,
2013-02-15 05:11:00,11.0,10.0,-100.00,SE,128,0.0,1.0,96,-99.99,,,-99.99,,2013-02-15 12:11:00,
2013-02-15 05:21:00,11.0,10.0,-100.00,SSE,167,0.0,1.0,96,-99.99,,,-99.99,,2013-02-15 12:21:00,
2013-02-15 05:31:00,12.0,12.0,-100.00,SSE,151,0.0,1.0,98,-99.99,,,-99.99,,2013-02-15 12:31:00,
2013-02-15 05:42:00,12.0,12.0,-100.00,SSE,151,0.0,1.0,98,-99.99,,,-99.99,,2013-02-15 12:42:00,
2013-02-15 05:52:00,13.0,13.0,-100.00,South,169,1.0,2.0,98,-99.99,,,-99.99,,2013-02-15 12:52:00,
2013-02-15 06:02:00,13.0,12.0,-100.00,SSW,192,0.0,1.0,96,-99.99,,,-99.99,,2013-02-15 13:02:00,
2013-02-15 06:11:00,13.0,12.0,-100.00,SSW,192,0.0,1.0,96,-99.99,,,-99.99,,2013-02-15 13:11:00,
2013-02-15 06:21:00,13.0,12.0,-100.00,SE,143,1.0,2.0,96,-99.99,,,-99.99,,2013-02-15 13:21:00,
2013-02-15 06:31:00,13.0,12.0,-100.00,ESE,115,0.0,1.0,94,-99.99,,,-99.99,,2013-02-15 13:31:00,
2013-02-15 06:41:00,13.0,12.0,-100.00,ESE,115,0.0,1.0,94,-99.99,,,-99.99,,2013-02-15 13:41:00,
2013-02-15 06:51:00,12.0,11.0,-100.00,SE,132,0.0,1.0,96,-99.99,,,-99.99,,2013-02-15 13:51:00,
2013-02-15 07:01:00,13.0,13.0,-100.00,SSE,162,1.0,2.0,98,-99.99,,,-99.99,,2013-02-15 14:01:00,
2013-02-15 07:11:00,13.0,13.0,-100.00,SSE,162,1.0,2.0,98,-99.99,,,-99.99,,2013-02-15 14:11:00,
2013-02-15 07:21:00,13.0,12.0,-100.00,North,0,0.0,0.0,96,-99.99,,,-99.99,,2013-02-15 14:21:00,
2013-02-15 07:32:00,15.0,15.0,-100.00,North,0,0.0,0.0,98,-99.99,,,-99.99,,2013-02-15 14:32:00,
2013-02-15 07:41:00,15.0,15.0,-100.00,North,0,0.0,0.0,98,-99.99,,,-99.99,,2013-02-15 14:41:00,
2013-02-15 07:52:00,16.0,15.0,-100.00,SSE,147,0.0,1.0,96,-99.99,,,-99.99,,2013-02-15 14:52:00,
2013-02-15 08:01:00,17.0,16.0,-100.00,SSE,164,1.0,3.0,95,-99.99,,,-99.99,,2013-02-15 15:01:00,
2013-02-15 08:11:00,17.0,16.0,-100.00,SSE,164,1.0,3.0,95,-99.99,,,-99.99,,2013-02-15 15:11:00,
2013-02-15 08:21:00,17.0,15.0,-100.00,North,0,0.0,0.0,93,-99.99,,,-99.99,,2013-02-15 15:21:00,
2013-02-15 08:32:00,17.0,16.0,-100.00,WSW,238,0.0,1.0,94,-99.99,,,-99.99,,2013-02-15 15:32:00,
2013-02-15 08:41:00,17.0,16.0,-100.00,WSW,238,0.0,1.0,94,-99.99,,,-99.99,,2013-02-15 15:41:00,
2013-02-15 08:51:00,18.0,17.0,-100.00,NE,53,0.0,1.0,94,-99.99,,,-99.99,,2013-02-15 15:51:00,
2013-02-15 09:01:00,19.0,17.0,-100.00,NNW,332,2.0,4.0,91,-99.99,,,-99.99,,2013-02-15 16:01:00,
2013-02-15 09:11:00,19.0,17.0,-100.00,NNW,332,2.0,4.0,91,-99.99,,,-99.99,,2013-02-15 16:11:00,
2013-02-15 09:22:00,20.0,18.0,-100.00,NE,50,0.0,2.0,90,-99.99,,,-99.99,,2013-02-15 16:22:00,
2013-02-15 09:31:00,20.0,17.0,-100.00,North,10,2.0,6.0,89,-99.99,,,-99.99,,2013-02-15 16:31:00,
2013-02-15 09:42:00,20.0,17.0,-100.00,North,10,2.0,6.0,89,-99.99,,,-99.99,,2013-02-15 16:42:00,
2013-02-15 09:51:00,21.0,18.0,-100.00,NNE,12,1.0,4.0,88,-99.99,,,-99.99,,2013-02-15 16:51:00,
2013-02-15 10:01:00,21.0,17.0,-100.00,NNW,344,2.0,4.0,85,-99.99,,,-99.99,,2013-02-15 17:01:00,
2013-02-15 10:11:00,21.0,17.0,-100.00,NNW,344,2.0,4.0,85,-99.99,,,-99.99,,2013-02-15 17:11:00,
2013-02-15 10:21:00,21.0,17.0,-100.00,SE,141,2.0,6.0,84,-99.99,,,-99.99,,2013-02-15 17:21:00,
2013-02-15 10:32:00,21.0,17.0,-100.00,ESE,113,1.0,3.0,84,-99.99,,,-99.99,,2013-02-15 17:32:00,
2013-02-15 10:41:00,21.0,17.0,-100.00,ESE,113,1.0,3.0,84,-99.99,,,-99.99,,2013-02-15 17:41:00,
2013-02-15 10:52:00,22.0,18.0,-100.00,NNE,21,1.0,2.0,84,-99.99,,,-99.99,,2013-02-15 17:52:00,
2013-02-15 11:01:00,22.0,18.0,-100.00,NW,304,1.0,4.0,83,-99.99,,,-99.99,,2013-02-15 18:01:00,
2013-02-15 11:11:00,22.0,18.0,-100.00,NW,304,1.0,4.0,83,-99.99,,,-99.99,,2013-02-15 18:11:00,
2013-02-15 11:21:00,23.0,18.0,-100.00,East,88,1.0,4.0,82,-99.99,,,-99.99,,2013-02-15 18:21:00,
2013-02-15 11:31:00,23.0,18.0,-100.00,ESE,119,1.0,2.0,81,-99.99,,,-99.99,,2013-02-15 18:31:00,
2013-02-15 11:41:00,23.0,18.0,-100.00,ESE,119,1.0,2.0,81,-99.99,,,-99.99,,2013-02-15 18:41:00,
2013-02-15 11:52:00,24.0,19.0,-100.00,East,95,2.0,3.0,80,-99.99,,,-99.99,,2013-02-15 18:52:00,
2013-02-15 12:01:00,24.0,18.0,-100.00,East,88,1.0,4.0,79,-99.99,,,-99.99,,2013-02-15 19:01:00,
2013-02-15 12:11:00,24.0,18.0,-100.00,East,88,1.0,4.0,79,-99.99,,,-99.99,,2013-02-15 19:11:00,
2013-02-15 12:21:00,26.0,19.0,-100.00,ENE,65,1.0,3.0,73,-99.99,,,-99.99,,2013-02-15 19:21:00,
2013-02-15 12:32:00,26.0,19.0,-100.00,North,353,1.0,5.0,75,-99.99,,,-99.99,,2013-02-15 19:32:00,
2013-02-15 12:41:00,26.0,19.0,-100.00,North,353,1.0,5.0,75,-99.99,,,-99.99,,2013-02-15 19:41:00,
2013-02-15 12:51:00,27.0,20.0,-100.00,ESE,108,1.0,3.0,73,-99.99,,,-99.99,,2013-02-15 19:51:00,
2013-02-15 13:01:00,28.0,20.0,-100.00,ENE,72,2.0,4.0,72,-99.99,,,-99.99,,2013-02-15 20:01:00,
2013-02-15 13:11:00,28.0,20.0,-100.00,ENE,72,2.0,4.0,72,-99.99,,,-99.99,,2013-02-15 20:11:00,
2013-02-15 13:21:00,28.0,20.0,-100.00,ESE,105,1.0,3.0,71,-99.99,,,-99.99,,2013-02-15 20:21:00,
2013-02-15 13:32:00,28.0,20.0,-100.00,ESE,120,2.0,3.0,70,-99.99,,,-99.99,,2013-02-15 20:32:00,
2013-02-15 13:42:00,28.0,20.0,-100.00,ESE,120,2.0,3.0,70,-99.99,,,-99.99,,2013-02-15 20:42:00,
2013-02-15 13:52:00,30.0,20.0,-100.00,ENE,57,1.0,3.0,65,-99.99,,,-99.99,,2013-02-15 20:52:00,
2013-02-15 14:01:00,30.0,20.0,-100.00,NE,43,2.0,4.0,66,-99.99,,,-99.99,,2013-02-15 21:01:00,
2013-02-15 14:11:00,30.0,20.0,-100.00,NE,43,2.0,4.0,66,-99.99,,,-99.99,,2013-02-15 21:11:00,
2013-02-15 14:21:00,31.0,20.0,-100.00,SE,126,2.0,4.0,63,-99.99,,,-99.99,,2013-02-15 21:21:00,
2013-02-15 14:31:00,30.0,20.0,-100.00,NW,324,2.0,4.0,67,-99.99,,,-99.99,,2013-02-15 21:31:00,
2013-02-15 14:42:00,30.0,20.0,-100.00,NW,324,2.0,4.0,67,-99.99,,,-99.99,,2013-02-15 21:42:00,
2013-02-15 14:51:00,30.0,21.0,-100.00,North,6,1.0,2.0,69,-99.99,,,-99.99,,2013-02-15 21:51:00,
2013-02-15 15:02:00,29.0,21.0,-100.00,East,91,2.0,4.0,71,-99.99,,,-99.99,,2013-02-15 22:02:00,
2013-02-15 15:11:00,29.0,21.0,-100.00,East,91,2.0,4.0,71,-99.99,,,-99.99,,2013-02-15 22:11:00,
2013-02-15 15:21:00,29.0,21.0,-100.00,NE,41,1.0,3.0,73,-99.99,,,-99.99,,2013-02-15 22:21:00,
2013-02-15 15:31:00,29.0,21.0,-100.00,NNE,30,1.0,3.0,73,-99.99,,,-99.99,,2013-02-15 22:31:00,
2013-02-15 15:41:00,29.0,21.0,-100.00,NNE,30,1.0,3.0,73,-99.99,,,-99.99,,2013-02-15 22:41:00,
2013-02-15 15:51:00,29.0,22.0,-100.00,North,355,2.0,4.0,76,-99.99,,,-99.99,,2013-02-15 22:51:00,
2013-02-15 16:02:00,29.0,22.0,-100.00,NNE,26,1.0,3.0,76,-99.99,,,-99.99,,2013-02-15 23:02:00,
2013-02-15 16:11:00,29.0,22.0,-100.00,NNE,26,1.0,3.0,76,-99.99,,,-99.99,,2013-02-15 23:11:00,
2013-02-15 16:21:00,28.0,22.0,-100.00,NNW,328,2.0,5.0,77,-99.99,,,-99.99,,2013-02-15 23:21:00,
2013-02-15 16:31:00,28.0,21.0,-100.00,North,355,2.0,4.0,76,-99.99,,,-99.99,,2013-02-15 23:31:00,
2013-02-15 16:41:00,28.0,21.0,-100.00,North,355,2.0,4.0,76,-99.99,,,-99.99,,2013-02-15 23:41:00,
2013-02-15 16:52:00,28.0,21.0,-100.00,North,5,2.0,4.0,76,-99.99,,,-99.99,,2013-02-15 23:52:00,
2013-02-15 17:02:00,27.0,21.0,-100.00,West,268,1.0,1.0,78,-99.99,,,-99.99,,2013-02-16 00:02:00,
2013-02-15 17:11:00,27.0,21.0,-100.00,West,268,1.0,1.0,78,-99.99,,,-99.99,,2013-02-16 00:11:00,
2013-02-15 17:21:00,26.0,20.0,-100.00,WNW,300,2.0,3.0,79,-99.99,,,-99.99,,2013-02-16 00:21:00,
2013-02-15 17:32:00,26.0,21.0,-100.00,West,260,1.0,2.0,80,-99.99,,,-99.99,,2013-02-16 00:32:00,
2013-02-15 17:41:00,26.0,21.0,-100.00,West,260,1.0,2.0,80,-99.99,,,-99.99,,2013-02-16 00:41:00,
2013-02-15 17:51:00,24.0,19.0,-100.00,NE,54,0.0,1.0,82,-99.99,,,-99.99,,2013-02-16 00:51:00,
2013-02-15 18:02:00,23.0,19.0,-100.00,SSW,208,0.0,1.0,86,-99.99,,,-99.99,,2013-02-16 01:02:00,
2013-02-15 18:11:00,23.0,19.0,-100.00,SSW,208,0.0,1.0,86,-99.99,,,-99.99,,2013-02-16 01:11:00,
2013-02-15 18:21:00,22.0,18.0,-100.00,SE,132,0.0,1.0,86,-99.99,,,-99.99,,2013-02-16 01:21:00,
2013-02-15 18:31:00,21.0,17.0,-100.00,SE,134,0.0,0.0,86,-99.99,,,-99.99,,2013-02-16 01:31:00,
2013-02-15 18:41:00,21.0,17.0,-100.00,SE,134,0.0,0.0,86,-99.99,,,-99.99,,2013-02-16 01:41:00,
2013-02-15 18:51:00,20.0,17.0,-100.00,NNW,339,0.0,0.0,87,-99.99,,,-99.99,,2013-02-16 01:51:00,
2013-02-15 19:01:00,20.0,17.0,-100.00,SSW,213,1.0,1.0,87,-99.99,,,-99.99,,2013-02-16 02:01:00,
2013-02-15 19:11:00,20.0,17.0,-100.00,SSW,213,1.0,1.0,87,-99.99,,,-99.99,,2013-02-16 02:11:00,
2013-02-15 19:21:00,20.0,16.0,-100.00,SSW,196,0.0,1.0,86,-99.99,,,-99.99,,2013-02-16 02:21:00,
2013-02-15 19:31:00,19.0,15.0,-100.00,SSW,199,0.0,1.0,85,-99.99,,,-99.99,,2013-02-16 02:31:00,
2013-02-15 19:42:00,19.0,15.0,-100.00,SSW,199,0.0,1.0,85,-99.99,,,-99.99,,2013-02-16 02:42:00,
2013-02-15 19:52:00,19.0,16.0,-100.00,SSW,199,0.0,1.0,86,-99.99,,,-99.99,,2013-02-16 02:52:00,
2013-02-15 20:01:00,19.0,15.0,-100.00,SSW,207,1.0,2.0,85,-99.99,,,-99.99,,2013-02-16 03:01:00,
2013-02-15 20:11:00,19.0,15.0,-100.00,SSW,207,1.0,2.0,85,-99.99,,,-99.99,,2013-02-16 03:11:00,
2013-02-15 20:21:00,18.0,14.0,-100.00,SSW,209,0.0,1.0,85,-99.99,,,-99.99,,2013-02-16 03:21:00,
2013-02-15 20:31:00,18.0,15.0,-100.00,SSW,211,0.0,1.0,86,-99.99,,,-99.99,,2013-02-16 03:31:00,
2013-02-15 20:41:00,18.0,15.0,-100.00,SSW,211,0.0,1.0,86,-99.99,,,-99.99,,2013-02-16 03:41:00,
2013-02-15 20:52:00,18.0,15.0,-100.00,SSW,196,0.0,1.0,86,-99.99,,,-99.99,,2013-02-16 03:52:00,
2013-02-15 21:01:00,17.0,14.0,-100.00,SSE,165,0.0,2.0,87,-99.99,,,-99.99,,2013-02-16 04:01:00,
2013-02-15 21:11:00,17.0,14.0,-100.00,SSE,165,0.0,2.0,87,-99.99,,,-99.99,,2013-02-16 04:11:00,
2013-02-15 21:21:00,18.0,16.0,-100.00,SSW,195,1.0,2.0,91,-99.99,,,-99.99,,2013-02-16 04:21:00,
2013-02-15 21:31:00,18.0,15.0,-100.00,SSW,197,1.0,1.0,88,-99.99,,,-99.99,,2013-02-16 04:31:00,
2013-02-15 21:41:00,18.0,15.0,-100.00,SSW,197,1.0,1.0,88,-99.99,,,-99.99,,2013-02-16 04:41:00,
2013-02-15 21:51:00,18.0,15.0,-100.00,SSW,212,1.0,2.0,87,-99.99,,,-99.99,,2013-02-16 04:51:00,
2013-02-15 22:01:00,18.0,14.0,-100.00,South,188,0.0,1.0,83,-99.99,,,-99.99,,2013-02-16 05:01:00,
2013-02-15 22:11:00,18.0,14.0,-100.00,South,188,0.0,1.0,83,-99.99,,,-99.99,,2013-02-16 05:11:00,
2013-02-15 22:21:00,17.0,13.0,-100.00,SSE,156,0.0,1.0,85,-99.99,,,-99.99,,2013-02-16 05:21:00,
2013-02-15 22:31:00,17.0,14.0,-100.00,SSW,196,0.0,1.0,87,-99.99,,,-99.99,,2013-02-16 05:31:00,
2013-02-15 22:42:00,17.0,14.0,-100.00,SSW,196,0.0,1.0,87,-99.99,,,-99.99,,2013-02-16 05:42:00,
2013-02-15 22:52:00,17.0,14.0,-100.00,SW,216,0.0,2.0,87,-99.99,,,-99.99,,2013-02-16 05:52:00,
2013-02-15 23:01:00,16.0,13.0,-100.00,SSE,168,0.0,2.0,87,-99.99,,,-99.99,,2013-02-16 06:01:00,
2013-02-15 23:11:00,16.0,13.0,-100.00,SSE,168,0.0,2.0,87,-99.99,,,-99.99,,2013-02-16 06:11:00,
2013-02-15 23:21:00,16.0,13.0,-100.00,SSW,199,0.0,1.0,88,-99.99,,,-99.99,,2013-02-16 06:21:00,
2013-02-15 23:32:00,16.0,13.0,-100.00,SW,222,0.0,1.0,88,-99.99,,,-99.99,,2013-02-16 06:32:00,
2013-02-15 23:42:00,16.0,13.0,-100.00,SW,222,0.0,1.0,88,-99.99,,,-99.99,,2013-02-16 06:42:00,
2013-02-15 23:51:00,16.0,13.0,-100.00,South,180,0.0,1.0,87,-99.99,,,-99.99,,2013-02-16 06:51:00,